Time;durP1;ratioP1;P1;durP2;ratioP2;P2;SDS_P1;SDS_P2;PMS_P1;PMS_P2;Temp;Humidity;BMP_temperature;BMP_pressure;BME280_temperature;BME280_humidity;BME280_pressure;Samples;Min_cycle;Max_cycle;Signal;HPM_P1;HPM_P2
2022/05/29 00:01:51;;;;;;;;;2.00;1.50;;;;;16.28;41.77;101465.16;4958303;28;45486;-70
2022/05/29 00:04:17;;;;;;;;;1.25;1.00;;;;;16.28;41.79;101462.44;4958362;28;45236;-70
2022/05/29 00:06:45;;;;;;;;;3.00;2.00;;;;;16.33;41.83;101464.09;4958456;28;45145;-70
2022/05/29 00:09:16;;;;;;;;;1.25;1.00;;;;;16.33;41.62;101462.25;4958342;28;45507;-70
2022/05/29 00:11:42;;;;;;;;;2.00;1.50;;;;;16.29;41.88;101456.13;4958248;28;45308;-70
2022/05/29 00:14:07;;;;;;;;;1.50;1.50;;;;;16.27;41.80;101459.81;4943864;28;45343;-70
2022/05/29 00:16:32;;;;;;;;;2.00;2.00;;;;;16.28;41.94;101469.66;4958390;28;45523;-70
2022/05/29 00:18:58;;;;;;;;;1.00;1.00;;;;;16.24;41.98;101455.47;4959894;28;46439;-70
2022/05/29 00:21:24;;;;;;;;;1.00;1.00;;;;;16.30;41.71;101459.69;4964335;28;45997;-70
2022/05/29 00:23:50;;;;;;;;;2.00;1.00;;;;;16.27;42.14;101459.81;4956918;28;45161;-70
2022/05/29 00:26:17;;;;;;;;;3.00;2.00;;;;;16.22;41.85;101461.84;4964818;28;45287;-70
2022/05/29 00:28:43;;;;;;;;;1.50;1.00;;;;;16.17;41.80;101451.31;4964312;28;45654;-70
2022/05/29 00:31:09;;;;;;;;;1.50;1.50;;;;;16.05;42.30;101444.63;4964507;28;46137;-70
2022/05/29 00:33:35;;;;;;;;;1.00;1.00;;;;;16.05;42.04;101446.44;4964145;28;45333;-70
2022/05/29 00:36:00;;;;;;;;;2.00;2.00;;;;;15.96;42.24;101434.25;4964618;28;45335;-70
2022/05/29 00:38:27;;;;;;;;;2.25;1.25;;;;;15.94;42.39;101455.00;4964177;28;45418;-70
2022/05/29 00:41:11;;;;;;;;;1.50;1.50;;;;;15.91;42.54;101452.44;4964246;28;45894;-70
2022/05/29 00:43:37;;;;;;;;;2.50;1.00;;;;;15.87;42.55;101454.41;4964242;28;45481;-70
2022/05/29 00:46:04;;;;;;;;;3.50;2.75;;;;;15.78;42.25;101449.41;4962908;28;45333;-70
2022/05/29 00:48:30;;;;;;;;;1.00;1.00;;;;;15.69;42.92;101447.94;4964101;28;45607;-70
2022/05/29 00:50:59;;;;;;;;;1.50;1.50;;;;;15.68;42.71;101450.69;4963876;28;46600;-70
2022/05/29 00:53:27;;;;;;;;;1.50;1.50;;;;;15.66;43.03;101434.63;4964191;28;45373;-70
2022/05/29 00:56:06;;;;;;;;;1.00;1.00;;;;;15.72;42.91;101452.34;4963947;28;45241;-70
2022/05/29 00:58:32;;;;;;;;;2.00;1.00;;;;;15.63;43.21;101441.94;4964289;28;45315;-70
2022/05/29 01:00:57;;;;;;;;;1.25;1.00;;;;;15.71;43.14;101448.75;4962360;28;47889;-70
2022/05/29 01:03:23;;;;;;;;;0.00;0.00;;;;;15.63;43.28;101432.03;4963917;28;45367;-70
2022/05/29 01:05:49;;;;;;;;;1.50;1.50;;;;;15.63;43.06;101440.13;4963804;28;45388;-70
2022/05/29 01:08:23;;;;;;;;;1.50;1.00;;;;;15.59;43.38;101445.72;4963951;28;45311;-70
2022/05/29 01:10:48;;;;;;;;;1.00;1.00;;;;;15.58;43.50;101442.13;4963834;28;45509;-69
2022/05/29 01:13:35;;;;;;;;;1.75;1.75;;;;;15.58;43.25;101439.44;4954948;28;45422;-70
2022/05/29 01:16:26;;;;;;;;;1.00;1.00;;;;;15.44;43.51;101442.72;4962747;28;45293;-70
2022/05/29 01:19:12;;;;;;;;;2.00;1.00;;;;;15.40;43.68;101433.00;4963812;28;45422;-70
2022/05/29 01:22:02;;;;;;;;;2.00;2.00;;;;;15.39;43.60;101428.59;4963461;28;45390;-70
2022/05/29 01:24:34;;;;;;;;;1.75;1.75;;;;;15.38;43.78;101422.34;4956148;28;45241;-70
2022/05/29 01:27:18;;;;;;;;;2.50;1.00;;;;;15.37;43.64;101435.84;4962441;28;45378;-69
2022/05/29 01:30:02;;;;;;;;;4.00;1.00;;;;;15.35;43.97;101424.25;4963608;28;45253;-70
2022/05/29 01:32:36;;;;;;;;;1.00;1.00;;;;;15.32;44.01;101424.41;4959483;28;45398;-69
2022/05/29 01:35:28;;;;;;;;;2.00;1.00;;;;;15.30;44.09;101416.41;4959877;28;45349;-70
2022/05/29 01:38:02;;;;;;;;;1.00;1.00;;;;;15.26;44.35;101413.91;4958242;28;45229;-70
2022/05/29 01:40:39;;;;;;;;;1.50;1.50;;;;;15.31;44.50;101407.38;4960210;28;45240;-70
2022/05/29 01:43:15;;;;;;;;;0.75;0.75;;;;;15.38;44.18;101413.38;4959821;28;45324;-70
2022/05/29 01:45:57;;;;;;;;;2.00;2.00;;;;;15.36;44.24;101417.94;4960078;28;45524;-70
2022/05/29 01:48:27;;;;;;;;;1.00;1.00;;;;;15.23;44.33;101409.50;4960043;28;45334;-70
2022/05/29 01:50:57;;;;;;;;;1.50;1.50;;;;;15.15;44.47;101411.63;4959894;28;45299;-69
2022/05/29 01:53:35;;;;;;;;;4.50;1.25;;;;;15.08;44.69;101413.69;4958606;28;45950;-69
2022/05/29 01:56:08;;;;;;;;;2.00;2.00;;;;;15.03;44.93;101409.44;4959845;28;45731;-70
2022/05/29 01:58:39;;;;;;;;;1.00;1.00;;;;;14.96;44.86;101411.50;4960173;28;45233;-69
2022/05/29 02:01:09;;;;;;;;;1.00;1.00;;;;;14.91;45.22;101405.44;4959783;28;45462;-69
2022/05/29 02:03:42;;;;;;;;;2.75;1.00;;;;;14.89;45.29;101402.81;4959724;28;45236;-69
2022/05/29 02:06:15;;;;;;;;;1.25;1.25;;;;;14.90;45.46;101407.28;4959441;28;45253;-70
2022/05/29 02:09:03;;;;;;;;;1.00;1.00;;;;;14.88;45.66;101406.44;4960041;28;45351;-70
2022/05/29 02:11:31;;;;;;;;;1.00;1.00;;;;;14.88;45.62;101398.38;4959946;28;45190;-69
2022/05/29 02:14:04;;;;;;;;;1.50;1.50;;;;;14.95;45.54;101410.66;4946620;28;46178;-69
2022/05/29 02:16:47;;;;;;;;;1.00;1.00;;;;;14.88;45.51;101406.44;4959771;28;45242;-69
2022/05/29 02:19:20;;;;;;;;;1.00;1.00;;;;;14.84;45.96;101407.50;4959641;28;45284;-70
2022/05/29 02:22:05;;;;;;;;;1.00;1.00;;;;;14.91;45.91;101408.13;4959438;28;45463;-69
2022/05/29 02:24:38;;;;;;;;;5.00;1.75;;;;;14.93;45.86;101406.25;4951475;28;46934;-69
2022/05/29 02:27:16;;;;;;;;;2.75;2.75;;;;;14.89;46.07;101397.44;4959561;28;45311;-69
2022/05/29 02:29:42;;;;;;;;;1.00;1.00;;;;;14.90;46.09;101390.25;4958402;28;45463;-70
2022/05/29 02:32:27;;;;;;;;;2.00;2.00;;;;;14.91;45.97;101394.69;4959264;28;45256;-70
2022/05/29 02:35:06;;;;;;;;;0.75;0.75;;;;;14.86;45.94;101396.69;4958759;28;46262;-70
2022/05/29 02:37:53;;;;;;;;;3.25;1.50;;;;;14.86;46.24;101388.63;4959431;28;45229;-69
2022/05/29 02:40:27;;;;;;;;;2.00;2.00;;;;;14.87;46.10;101384.97;4959381;28;45307;-70
2022/05/29 02:43:17;;;;;;;;;1.00;1.00;;;;;14.89;46.32;101385.81;4959154;28;45386;-70
2022/05/29 02:46:00;;;;;;;;;2.00;2.00;;;;;14.88;46.08;101379.56;4959307;28;45214;-70
2022/05/29 02:48:38;;;;;;;;;1.75;1.75;;;;;14.87;46.11;101384.97;4959077;28;45607;-70
2022/05/29 02:51:14;;;;;;;;;1.00;1.00;;;;;14.84;46.27;101377.06;4957813;28;45304;-70
2022/05/29 02:53:44;;;;;;;;;3.00;2.00;;;;;14.73;46.40;101370.28;4959440;28;45596;-70
2022/05/29 02:56:11;;;;;;;;;1.50;1.00;;;;;14.74;46.71;101372.06;4958936;28;45430;-69
2022/05/29 02:58:39;;;;;;;;;1.00;1.00;;;;;14.84;46.52;101377.94;4959217;28;45265;-69
2022/05/29 03:01:13;;;;;;;;;1.50;1.00;;;;;14.87;46.51;101374.22;4959156;28;45331;-69
2022/05/29 03:03:57;;;;;;;;;2.00;1.00;;;;;14.86;46.65;101375.19;4957949;28;45255;-69
2022/05/29 03:06:31;;;;;;;;;3.00;1.25;;;;;14.87;46.68;101379.59;4958904;28;46002;-69
2022/05/29 03:09:05;;;;;;;;;2.00;2.00;;;;;14.86;46.73;101359.06;4959158;28;45166;-69
2022/05/29 03:11:41;;;;;;;;;2.00;2.00;;;;;14.93;46.76;101371.31;4957804;28;45253;-69
2022/05/29 03:14:32;;;;;;;;;2.50;2.00;;;;;14.91;46.43;101370.50;4945773;28;45329;-69
2022/05/29 03:17:33;;;;;;;;;2.25;2.25;;;;;14.84;46.81;101369.88;4958948;28;46275;-69
2022/05/29 03:20:04;;;;;;;;;3.00;3.00;;;;;14.78;46.71;101373.69;4958937;28;45262;-70
2022/05/29 03:22:44;;;;;;;;;3.00;2.75;;;;;14.70;46.94;101365.06;4958907;28;45536;-69
2022/05/29 03:25:27;;;;;;;;;3.00;3.00;;;;;14.64;46.98;101355.41;4947042;28;45212;-69
2022/05/29 03:27:56;;;;;;;;;2.50;2.50;;;;;14.67;46.82;101362.50;4957538;28;48132;-70
2022/05/29 03:30:26;;;;;;;;;2.50;2.50;;;;;14.66;47.21;101355.34;4958798;28;45255;-69
2022/05/29 03:33:01;;;;;;;;;3.25;3.00;;;;;14.66;46.79;101360.72;4958847;28;45402;-69
2022/05/29 03:35:34;;;;;;;;;2.75;2.75;;;;;14.67;47.03;101362.50;4958634;28;45415;-69
2022/05/29 03:38:01;;;;;;;;;3.25;2.00;;;;;14.59;47.26;101352.03;4958677;28;46625;-69
2022/05/29 03:40:29;;;;;;;;;3.25;2.00;;;;;14.67;47.23;101356.22;4958628;28;45450;-69
2022/05/29 03:42:55;;;;;;;;;2.50;1.75;;;;;14.66;47.38;101365.25;4958654;28;45485;-70
2022/05/29 03:45:21;;;;;;;;;5.75;1.50;;;;;14.58;47.28;101360.13;4958472;28;45223;-70
2022/05/29 03:47:47;;;;;;;;;3.00;1.50;;;;;14.43;47.57;101351.75;4958442;28;46141;-69
2022/05/29 03:50:16;;;;;;;;;3.75;2.00;;;;;14.46;47.68;101359.66;4958252;28;45260;-69
2022/05/29 03:52:42;;;;;;;;;1.75;1.75;;;;;14.45;47.68;101359.75;4957364;28;45497;-69
2022/05/29 03:55:08;;;;;;;;;1.00;1.00;;;;;14.33;47.78;101354.81;4956327;28;45516;-69
2022/05/29 03:57:33;;;;;;;;;6.50;3.00;;;;;14.23;47.65;101348.91;4958161;28;45283;-70
2022/05/29 03:59:59;;;;;;;;;3.50;2.50;;;;;14.17;48.29;101354.53;4958595;28;45422;-70
2022/05/29 04:02:24;;;;;;;;;0.00;0.00;;;;;14.18;48.04;101361.66;4958484;28;45222;-69
2022/05/29 04:04:50;;;;;;;;;1.00;1.00;;;;;14.18;48.13;101359.88;4958226;28;45378;-69
2022/05/29 04:07:15;;;;;;;;;4.25;1.25;;;;;14.23;48.13;101357.88;4958177;28;45899;-69
2022/05/29 04:12:25;;;;;;;;;2.50;2.50;;;;;14.18;48.02;101359.88;4956171;28;45331;-70
2022/05/29 04:14:51;;;;;;;;;2.00;2.00;;;;;14.15;48.41;101356.38;4947868;28;45166;-69
2022/05/29 04:17:18;;;;;;;;;2.00;2.00;;;;;14.04;48.41;101357.66;4958031;28;45904;-69
2022/05/29 04:19:44;;;;;;;;;1.75;1.75;;;;;14.09;48.71;101360.19;4956757;28;45335;-70
2022/05/29 04:22:17;;;;;;;;;2.75;2.00;;;;;14.12;48.78;101367.28;4958219;28;45400;-69
2022/05/29 04:24:42;;;;;;;;;2.25;2.00;;;;;14.08;48.61;101353.97;4950185;28;45269;-69
2022/05/29 04:27:09;;;;;;;;;4.75;2.00;;;;;14.13;48.56;101363.63;4958024;28;45225;-69
2022/05/29 04:29:35;;;;;;;;;3.00;1.25;;;;;14.06;48.76;101352.25;4958089;28;45441;-69
2022/05/29 04:34:44;;;;;;;;;2.00;2.00;;;;;14.06;48.96;101355.78;4957791;28;45355;-69
2022/05/29 04:37:10;;;;;;;;;3.00;1.00;;;;;14.12;48.80;101356.53;4957623;28;45310;-69
2022/05/29 04:39:36;;;;;;;;;2.00;2.00;;;;;14.10;48.67;101359.28;4957953;28;45431;-70
2022/05/29 04:42:03;;;;;;;;;3.00;2.00;;;;;13.99;48.70;101340.88;4957747;28;45260;-70
2022/05/29 04:44:30;;;;;;;;;2.25;2.25;;;;;14.07;48.76;101356.69;4957807;28;45376;-69
2022/05/29 04:46:57;;;;;;;;;5.00;3.50;;;;;14.04;49.04;101352.31;4957482;28;46292;-69
2022/05/29 04:49:22;;;;;;;;;1.25;1.00;;;;;14.09;48.71;101355.69;4956621;28;45330;-69
2022/05/29 04:51:48;;;;;;;;;4.50;2.00;;;;;14.13;48.93;101359.13;4957395;28;45319;-69
2022/05/29 04:54:13;;;;;;;;;2.50;2.50;;;;;14.12;48.79;101361.91;4957700;28;45299;-69
2022/05/29 04:56:38;;;;;;;;;1.25;1.25;;;;;14.05;49.01;101348.69;4957230;28;45391;-69
2022/05/29 04:59:03;;;;;;;;;2.25;1.00;;;;;14.10;49.05;101353.91;4957630;28;45260;-69
2022/05/29 05:01:29;;;;;;;;;3.00;3.00;;;;;14.14;48.99;101358.22;4957347;28;45410;-69
2022/05/29 05:03:54;;;;;;;;;2.00;2.00;;;;;14.18;48.96;101353.59;4957587;28;45518;-70
2022/05/29 05:06:20;;;;;;;;;2.50;2.25;;;;;14.23;49.12;101368.63;4956821;28;47510;-69
2022/05/29 05:08:45;;;;;;;;;4.75;2.00;;;;;14.15;49.04;101348.34;4960538;28;45325;-69
2022/05/29 05:11:11;;;;;;;;;1.75;1.75;;;;;14.18;49.06;101350.91;4959139;28;45307;-69
2022/05/29 05:13:36;;;;;;;;;4.25;1.50;;;;;14.20;49.12;101357.09;4948689;28;45295;-70
2022/05/29 05:16:04;;;;;;;;;4.00;2.00;;;;;14.20;49.35;101352.63;4958121;28;47393;-69
2022/05/29 05:18:29;;;;;;;;;2.50;2.00;;;;;14.06;49.01;101355.78;4960309;28;45415;-71
2022/05/29 05:20:55;;;;;;;;;3.50;3.50;;;;;14.03;49.27;101350.56;4958925;28;45871;-69
2022/05/29 05:23:20;;;;;;;;;2.50;2.50;;;;;14.08;49.49;101359.31;4953658;28;45571;-70
2022/05/29 05:25:46;;;;;;;;;2.00;2.00;;;;;14.08;49.48;101363.78;4959524;28;45230;-69
2022/05/29 05:28:11;;;;;;;;;7.25;3.75;;;;;14.04;49.34;101370.22;4958998;28;45410;-70
2022/05/29 05:30:37;;;;;;;;;2.00;2.00;;;;;13.95;49.66;101352.66;4960272;28;45261;-69
2022/05/29 05:33:02;;;;;;;;;3.00;3.00;;;;;13.83;49.86;101351.31;4960089;28;45293;-70
2022/05/29 05:35:28;;;;;;;;;3.75;3.00;;;;;13.85;50.06;101365.53;4958495;28;47287;-69
2022/05/29 05:37:53;;;;;;;;;3.00;3.00;;;;;13.81;49.81;101352.28;4958841;28;45408;-69
2022/05/29 05:40:19;;;;;;;;;3.00;3.00;;;;;13.77;50.14;101356.88;4960279;28;45605;-69
2022/05/29 05:42:44;;;;;;;;;2.00;2.00;;;;;13.81;50.00;101360.31;4958674;28;45653;-69
2022/05/29 05:45:12;;;;;;;;;2.00;2.00;;;;;13.75;50.07;101364.13;4959835;28;45319;-69
2022/05/29 05:47:38;;;;;;;;;4.50;3.50;;;;;13.66;50.10;101359.06;4959934;28;45331;-69
2022/05/29 05:50:05;;;;;;;;;4.25;2.25;;;;;13.66;50.40;101364.44;4959932;28;45346;-69
2022/05/29 05:52:30;;;;;;;;;3.00;3.00;;;;;13.59;50.13;101371.81;4959921;28;45219;-69
2022/05/29 05:54:56;;;;;;;;;3.00;2.00;;;;;13.51;50.69;101363.16;4959708;28;45166;-70
2022/05/29 05:57:21;;;;;;;;;2.00;2.00;;;;;13.55;50.55;101356.78;4959792;28;45332;-69
2022/05/29 05:59:47;;;;;;;;;3.00;3.00;;;;;13.62;50.02;101369.03;4958628;28;45366;-69
2022/05/29 06:02:13;;;;;;;;;4.50;2.00;;;;;13.59;50.48;101358.41;4959706;28;45371;-69
2022/05/29 06:04:42;;;;;;;;;1.25;1.00;;;;;13.69;50.53;101356.28;4959474;28;45365;-69
2022/05/29 06:07:08;;;;;;;;;2.25;2.25;;;;;13.75;50.41;101364.13;4960004;28;45409;-69
2022/05/29 06:09:34;;;;;;;;;2.75;1.00;;;;;13.82;50.43;101365.63;4958694;28;45305;-69
2022/05/29 06:12:01;;;;;;;;;3.75;2.75;;;;;13.82;49.95;101362.09;4959786;28;45410;-70
2022/05/29 06:14:26;;;;;;;;;2.00;1.00;;;;;13.83;50.11;101355.78;4945232;28;46142;-69
2022/05/29 06:16:51;;;;;;;;;3.50;2.00;;;;;13.79;50.14;101348.78;4959270;28;45236;-69
2022/05/29 06:19:18;;;;;;;;;2.75;1.00;;;;;13.76;50.13;101349.75;4959658;28;45736;-69
2022/05/29 06:21:44;;;;;;;;;1.00;1.00;;;;;13.74;50.36;101348.06;4959535;28;45410;-69
2022/05/29 06:24:09;;;;;;;;;1.75;1.25;;;;;13.78;50.55;101349.69;4951650;28;45255;-70
2022/05/29 06:26:34;;;;;;;;;1.25;1.25;;;;;13.78;50.30;101342.53;4958406;28;45312;-69
2022/05/29 06:29:00;;;;;;;;;3.00;2.75;;;;;13.86;50.66;101351.16;4958230;28;45500;-70
2022/05/29 06:31:25;;;;;;;;;3.75;3.75;;;;;13.79;50.18;101335.34;4959507;28;45359;-69
2022/05/29 06:33:51;;;;;;;;;2.25;2.25;;;;;13.76;50.23;101348.88;4959324;28;45240;-70
2022/05/29 06:36:20;;;;;;;;;2.25;2.25;;;;;13.66;50.56;101349.19;4959425;28;45303;-70
2022/05/29 06:38:46;;;;;;;;;2.00;2.00;;;;;13.67;50.24;101353.66;4959482;28;45302;-69
2022/05/29 06:41:15;;;;;;;;;3.00;2.00;;;;;13.68;50.31;101355.41;4959427;28;45522;-70
2022/05/29 06:43:41;;;;;;;;;2.00;2.00;;;;;13.63;50.59;101357.38;4958047;28;46199;-70
2022/05/29 06:46:08;;;;;;;;;3.00;1.00;;;;;13.67;50.35;101356.31;4959291;28;45295;-70
2022/05/29 06:48:35;;;;;;;;;2.00;2.00;;;;;13.73;50.62;101355.22;4959553;28;45263;-70
2022/05/29 06:51:21;;;;;;;;;1.00;1.00;;;;;13.67;49.99;101350.09;4959335;28;45223;-69
2022/05/29 06:53:46;;;;;;;;;3.00;2.00;;;;;13.70;50.08;101360.72;4959324;28;46052;-69
2022/05/29 06:56:12;;;;;;;;;2.00;2.00;;;;;13.66;50.59;101354.56;4957663;28;45347;-69
2022/05/29 06:58:38;;;;;;;;;4.25;3.00;;;;;13.63;50.49;101346.66;4959443;28;45319;-69
2022/05/29 07:09:22;;;;;;;;;1.50;1.50;;;;;13.60;50.63;101349.44;4959380;28;45303;-70
2022/05/29 07:11:51;;;;;;;;;3.25;1.25;;;;;13.67;50.03;101356.31;4959199;28;45188;-69
2022/05/29 07:14:17;;;;;;;;;2.50;2.00;;;;;13.65;49.99;101350.16;4945828;28;45197;-70
2022/05/29 07:16:44;;;;;;;;;2.50;1.75;;;;;13.69;49.78;101353.59;4958944;28;45446;-70
2022/05/29 07:19:10;;;;;;;;;3.00;2.00;;;;;13.76;49.76;101339.00;4959157;28;45373;-70
2022/05/29 07:21:41;;;;;;;;;1.00;1.00;;;;;13.88;49.57;101351.09;4958578;28;45418;-70
2022/05/29 07:24:08;;;;;;;;;2.75;1.00;;;;;13.95;49.51;101355.34;4951188;28;45373;-69
2022/05/29 07:26:34;;;;;;;;;3.00;1.75;;;;;13.97;49.09;101350.78;4958987;28;45612;-70
2022/05/29 07:29:00;;;;;;;;;1.00;1.00;;;;;13.93;48.77;101341.06;4957764;28;45316;-70
2022/05/29 07:31:25;;;;;;;;;2.25;2.25;;;;;14.00;49.09;101329.19;4958814;28;45323;-69
2022/05/29 07:33:51;;;;;;;;;1.25;1.25;;;;;13.99;48.84;101319.38;4958527;28;46289;-70
2022/05/29 07:36:17;;;;;;;;;1.00;1.00;;;;;14.13;48.55;101350.22;4958672;28;45385;-69
2022/05/29 07:38:43;;;;;;;;;1.00;1.00;;;;;14.04;48.09;101335.34;4958718;28;45178;-70
2022/05/29 07:43:53;;;;;;;;;2.00;1.00;;;;;14.04;48.12;101327.28;4958602;28;45226;-69
2022/05/29 07:46:19;;;;;;;;;1.00;1.00;;;;;14.18;48.26;101340.16;4958367;28;45251;-69
2022/05/29 07:48:44;;;;;;;;;1.00;1.00;;;;;14.20;47.69;101323.09;4958847;28;45224;-70
2022/05/29 07:51:10;;;;;;;;;0.75;0.75;;;;;14.34;47.73;101335.09;4957080;28;45368;-69
2022/05/29 07:53:36;;;;;;;;;2.00;2.00;;;;;14.40;47.21;101343.78;4958539;28;45993;-70
2022/05/29 07:56:03;;;;;;;;;2.00;1.00;;;;;14.46;47.35;101339.97;4958168;28;45523;-70
2022/05/29 07:58:29;;;;;;;;;2.00;2.00;;;;;14.44;46.40;101342.72;4958627;28;45217;-69
2022/05/29 08:00:54;;;;;;;;;1.25;1.00;;;;;14.38;46.47;101337.63;4958354;28;45383;-69
2022/05/29 08:03:22;;;;;;;;;1.75;1.75;;;;;14.35;46.25;101332.34;4958207;28;46289;-69
2022/05/29 08:05:47;;;;;;;;;1.00;1.00;;;;;14.37;46.66;101332.31;4958243;28;45221;-70
2022/05/29 08:08:13;;;;;;;;;0.75;0.75;;;;;14.42;45.82;101330.31;4958566;28;45378;-70
2022/05/29 08:10:42;;;;;;;;;1.00;1.00;;;;;14.45;46.20;101336.44;4958169;28;45403;-69
2022/05/29 08:13:08;;;;;;;;;1.00;1.00;;;;;14.48;45.81;101324.69;4950271;28;46101;-69
2022/05/29 08:15:35;;;;;;;;;1.75;1.75;;;;;14.51;46.13;101321.00;4953536;28;45307;-69
2022/05/29 08:18:01;;;;;;;;;1.00;0.00;;;;;14.57;46.00;101326.16;4958370;28;45358;-69
2022/05/29 08:20:27;;;;;;;;;1.00;1.00;;;;;14.60;45.38;101320.66;4957829;28;45287;-70
2022/05/29 08:22:52;;;;;;;;;0.25;0.25;;;;;14.60;44.88;101329.63;4955214;28;45543;-70
2022/05/29 08:31:00;;;;;;;;;2.75;2.00;;;;;14.53;44.76;101325.38;4958084;28;45220;-70
2022/05/29 08:33:31;;;;;;;;;1.50;1.25;;;;;14.46;44.78;101319.38;4957754;28;45211;-70
2022/05/29 08:36:02;;;;;;;;;1.00;1.00;;;;;14.45;44.76;101322.13;4956725;28;45323;-70
2022/05/29 08:38:29;;;;;;;;;1.50;1.50;;;;;14.43;44.94;101315.94;4956713;28;45475;-69
2022/05/29 08:40:58;;;;;;;;;1.25;1.25;;;;;14.43;44.93;101307.88;4959610;28;45306;-70
2022/05/29 08:43:36;;;;;;;;;2.50;1.50;;;;;14.43;44.91;101313.25;4959270;28;47339;-69
2022/05/29 08:46:08;;;;;;;;;1.75;1.00;;;;;14.41;44.76;101305.25;4960990;28;45677;-70
2022/05/29 08:48:35;;;;;;;;;1.00;1.00;;;;;14.42;45.42;101296.25;4960682;28;45231;-69
2022/05/29 08:51:36;;;;;;;;;2.00;1.00;;;;;14.56;44.72;101305.56;4959334;28;46036;-70
2022/05/29 08:54:10;;;;;;;;;2.00;1.25;;;;;14.62;44.56;101303.56;4960754;28;45547;-70
2022/05/29 08:56:40;;;;;;;;;2.50;1.00;;;;;14.68;44.57;101296.19;4960598;28;45473;-70
2022/05/29 08:59:14;;;;;;;;;2.25;2.00;;;;;14.77;44.65;101299.38;4960869;28;45252;-70
2022/05/29 09:02:03;;;;;;;;;1.00;1.00;;;;;14.82;44.28;101293.81;4959246;28;45440;-70
2022/05/29 09:04:39;;;;;;;;;1.00;1.00;;;;;14.89;44.55;101302.50;4960391;28;45482;-70
2022/05/29 09:07:08;;;;;;;;;3.50;1.75;;;;;14.91;44.09;101304.16;4960738;28;45370;-69
2022/05/29 09:09:42;;;;;;;;;1.00;1.00;;;;;15.00;44.20;101302.91;4960605;28;45327;-70
2022/05/29 09:12:26;;;;;;;;;1.75;1.00;;;;;14.99;44.28;101290.41;4960352;28;45581;-70
2022/05/29 09:14:59;;;;;;;;;1.00;1.00;;;;;15.07;44.08;101279.31;4950130;28;45348;-69
2022/05/29 09:17:34;;;;;;;;;1.25;1.25;;;;;15.18;43.79;101283.31;4960309;28;45579;-70
2022/05/29 09:20:06;;;;;;;;;3.00;1.50;;;;;15.20;44.18;101283.22;4960476;28;45287;-70
2022/05/29 09:22:39;;;;;;;;;2.50;1.00;;;;;15.29;44.06;101281.97;4960155;28;45269;-70
2022/05/29 09:25:16;;;;;;;;;1.00;1.00;;;;;15.25;43.20;101283.94;4954521;28;46246;-70
2022/05/29 09:27:47;;;;;;;;;0.75;0.75;;;;;15.19;43.29;101277.00;4958998;28;45347;-70
2022/05/29 09:30:14;;;;;;;;;1.00;1.00;;;;;15.19;43.35;101266.22;4960238;28;45197;-70
2022/05/29 09:32:56;;;;;;;;;2.50;1.00;;;;;15.27;43.13;101267.69;4960257;28;45217;-70
2022/05/29 09:35:25;;;;;;;;;1.00;1.00;;;;;15.33;43.06;101273.69;4959905;28;45312;-70
2022/05/29 09:38:00;;;;;;;;;0.00;0.00;;;;;15.31;42.57;101251.38;4959117;28;45249;-70
2022/05/29 09:40:31;;;;;;;;;1.75;1.00;;;;;15.44;42.48;101259.78;4960165;28;45260;-70
2022/05/29 09:42:57;;;;;;;;;1.00;1.00;;;;;15.52;42.15;101267.53;4959986;28;45486;-70
2022/05/29 09:45:26;;;;;;;;;0.00;0.00;;;;;15.61;42.88;101255.47;4960103;28;46044;-70
2022/05/29 09:50:50;;;;;;;;;1.00;1.00;;;;;15.73;41.64;101260.28;4960042;28;45312;-70
2022/05/29 09:53:21;;;;;;;;;1.00;1.00;;;;;15.62;41.43;101241.94;4959060;28;45312;-70
2022/05/29 09:56:01;;;;;;;;;1.25;0.50;;;;;15.66;41.30;101248.91;4959836;28;46136;-70
2022/05/29 09:58:44;;;;;;;;;2.00;2.00;;;;;15.50;41.21;101227.22;4936194;28;45241;-70
2022/05/29 10:01:10;;;;;;;;;2.00;2.00;;;;;15.58;42.03;101245.69;4959906;28;45453;-70
2022/05/29 10:03:42;;;;;;;;;2.75;2.00;;;;;15.65;41.73;101243.59;4960035;28;45512;-70
2022/05/29 10:06:22;;;;;;;;;1.00;1.00;;;;;15.69;41.50;101238.03;4959527;28;46212;-69
2022/05/29 10:08:50;;;;;;;;;1.00;1.00;;;;;15.76;41.60;101246.72;4959909;28;45350;-70
2022/05/29 10:11:21;;;;;;;;;3.00;1.00;;;;;15.80;41.49;101242.94;4959717;28;45218;-70
2022/05/29 10:13:48;;;;;;;;;2.00;2.00;;;;;15.82;41.72;101237.47;4946786;28;45561;-70
2022/05/29 10:16:30;;;;;;;;;2.50;1.00;;;;;15.90;41.45;101240.69;4958383;28;47428;-70
2022/05/29 10:18:55;;;;;;;;;2.00;2.00;;;;;15.91;41.82;101237.06;4959697;28;45507;-70
2022/05/29 10:21:24;;;;;;;;;1.25;1.25;;;;;15.93;41.41;101246.78;4959531;28;45422;-70
2022/05/29 10:23:53;;;;;;;;;1.00;1.00;;;;;15.96;41.39;101239.53;4951916;28;45556;-70
2022/05/29 10:26:21;;;;;;;;;1.00;1.00;;;;;16.01;41.71;101245.59;4959546;28;46024;-70
2022/05/29 10:28:47;;;;;;;;;3.00;3.00;;;;;15.97;41.19;101238.56;4959544;28;45478;-70
2022/05/29 10:31:21;;;;;;;;;1.75;1.75;;;;;15.97;41.24;101244.84;4959633;28;45424;-70
2022/05/29 10:34:09;;;;;;;;;1.00;1.00;;;;;15.96;41.40;101235.03;4959389;28;45493;-70
2022/05/29 10:36:37;;;;;;;;;1.00;1.00;;;;;15.90;41.26;101236.19;4959042;28;46408;-70
2022/05/29 10:39:22;;;;;;;;;3.00;1.00;;;;;15.96;41.19;101234.16;4958169;28;45364;-70
2022/05/29 10:41:48;;;;;;;;;2.00;2.00;;;;;15.93;40.81;101235.16;4959291;28;45325;-70
2022/05/29 10:44:43;;;;;;;;;2.00;1.25;;;;;15.99;41.17;101228.59;4959487;28;45459;-70
2022/05/29 10:47:15;;;;;;;;;1.00;1.00;;;;;16.06;41.01;101227.38;4959375;28;45395;-70
2022/05/29 10:50:04;;;;;;;;;1.00;1.00;;;;;16.08;40.96;101217.41;4959071;28;45473;-70
2022/05/29 10:52:50;;;;;;;;;1.00;1.00;;;;;16.16;40.33;101220.59;4959597;28;45240;-70
2022/05/29 10:55:27;;;;;;;;;2.00;1.00;;;;;16.14;40.44;101214.44;4938519;28;45615;-70
2022/05/29 10:58:16;;;;;;;;;2.25;1.00;;;;;16.20;40.59;101215.94;4959207;28;45324;-70
2022/05/29 11:00:51;;;;;;;;;2.00;2.00;;;;;16.13;39.94;101209.13;4957967;28;45274;-70
2022/05/29 11:03:55;;;;;;;;;1.50;1.50;;;;;16.12;39.89;101219.00;4959046;28;45417;-69
2022/05/29 11:06:35;;;;;;;;;0.75;0.75;;;;;16.09;40.48;101211.94;4918301;28;45364;-69
2022/05/29 11:09:22;;;;;;;;;2.00;2.00;;;;;16.07;40.54;101210.25;4919370;28;45470;-70
2022/05/29 11:12:04;;;;;;;;;1.00;1.00;;;;;16.07;40.77;101208.47;4946811;28;45315;-69
2022/05/29 11:14:54;;;;;;;;;1.00;1.00;;;;;16.17;40.72;101205.31;4944866;28;45480;-69
2022/05/29 11:18:06;;;;;;;;;1.00;1.00;;;;;16.23;40.68;101199.63;4958811;28;45387;-69
2022/05/29 11:20:49;;;;;;;;;1.50;1.50;;;;;16.29;40.56;101193.97;4958642;28;46284;-69
2022/05/29 11:23:43;;;;;;;;;1.00;1.00;;;;;16.36;40.58;101205.31;4952998;28;45591;-69
2022/05/29 11:26:26;;;;;;;;;1.50;1.00;;;;;16.21;39.68;101191.63;4948602;28;45248;-70
2022/05/29 11:29:00;;;;;;;;;1.00;1.00;;;;;16.19;39.86;101198.03;4958824;28;45186;-69
2022/05/29 11:31:28;;;;;;;;;1.50;1.50;;;;;16.22;40.25;101182.63;4958617;28;45193;-69
2022/05/29 11:34:21;;;;;;;;;1.00;1.00;;;;;16.30;40.49;101180.41;4958638;28;45519;-69
2022/05/29 11:37:12;;;;;;;;;0.00;0.00;;;;;16.26;39.42;101173.41;4958767;28;45446;-70
2022/05/29 11:39:49;;;;;;;;;1.00;1.00;;;;;16.21;39.45;101161.13;4957010;28;45173;-69
2022/05/29 11:42:21;;;;;;;;;2.00;2.00;;;;;16.26;39.83;101156.41;4958706;28;46424;-69
2022/05/29 11:45:16;;;;;;;;;1.25;1.25;;;;;16.34;39.80;101167.66;4958421;28;45323;-70
2022/05/29 11:51:15;;;;;;;;;1.50;1.00;;;;;16.44;39.56;101138.44;4958506;28;45320;-69
2022/05/29 11:53:49;;;;;;;;;2.00;2.00;;;;;16.51;39.76;101150.66;4958562;28;45341;-70
2022/05/29 11:56:38;;;;;;;;;3.00;2.00;;;;;16.54;39.70;101142.41;4958247;28;45269;-69
2022/05/29 11:59:18;;;;;;;;;2.25;2.25;;;;;16.63;39.33;101141.06;4958673;28;45300;-69
2022/05/29 12:01:50;;;;;;;;;1.00;1.00;;;;;16.61;38.67;101135.75;4958354;28;45464;-70
2022/05/29 12:04:33;;;;;;;;;5.00;5.00;;;;;16.65;37.69;101139.16;4958122;28;46435;-69
2022/05/29 12:07:13;;;;;;;;;4.25;4.25;;;;;16.52;38.08;101114.63;4958575;28;45215;-70
2022/05/29 12:09:47;;;;;;;;;2.25;1.50;;;;;16.57;38.34;101127.88;4958424;28;45371;-70
2022/05/29 12:12:32;;;;;;;;;2.75;1.25;;;;;16.64;38.07;101126.66;4957410;28;45405;-69
2022/05/29 12:15:06;;;;;;;;;1.50;1.50;;;;;16.67;37.96;101119.25;4962856;28;46597;-69